Time;durP1;ratioP1;P1;durP2;ratioP2;P2;SDS_P1;SDS_P2;PMS_P1;PMS_P2;Temp;Humidity;BMP_temperature;BMP_pressure;BME280_temperature;BME280_humidity;BME280_pressure;Samples;Min_cycle;Max_cycle;Signal;HPM_P1;HPM_P2
2022/04/16 00:01:39;;;;;;;16.37;12.30;;;6.20;99.90;;;;;;5077343;28;20450;-80
2022/04/16 00:04:06;;;;;;;15.33;11.90;;;6.20;99.90;;;;;;5076093;28;20473;-81
2022/04/16 00:06:34;;;;;;;16.00;11.67;;;6.10;99.90;;;;;;5076647;28;20528;-82
2022/04/16 00:09:01;;;;;;;16.17;11.70;;;6.20;99.90;;;;;;5076603;28;20450;-82
2022/04/16 00:11:28;;;;;;;17.37;12.63;;;6.10;99.90;;;;;;5076760;28;20454;-81
2022/04/16 00:13:55;;;;;;;16.20;13.10;;;6.10;99.90;;;;;;5075573;28;20569;-83
2022/04/16 00:16:22;;;;;;;16.13;11.97;;;6.10;99.90;;;;;;5060805;28;20459;-82
2022/04/16 00:18:49;;;;;;;16.20;11.97;;;6.10;99.90;;;;;;5066954;28;20461;-82
2022/04/16 00:21:15;;;;;;;14.93;11.70;;;6.00;99.90;;;;;;5076224;28;20459;-81
2022/04/16 00:23:43;;;;;;;16.07;13.90;;;6.00;99.90;;;;;;5074053;28;20616;-82
2022/04/16 00:26:11;;;;;;;17.43;12.80;;;6.00;99.90;;;;;;5075550;28;20489;-81
2022/04/16 00:28:38;;;;;;;19.57;15.57;;;6.00;99.90;;;;;;5075297;28;20515;-82
2022/04/16 00:31:05;;;;;;;16.23;12.90;;;6.00;99.90;;;;;;5075293;28;20458;-82
2022/04/16 00:33:33;;;;;;;15.67;13.50;;;6.00;99.90;;;;;;5075118;28;20474;-82
2022/04/16 00:36:00;;;;;;;18.30;13.63;;;5.90;99.90;;;;;;5066531;28;20981;-82
2022/04/16 00:38:27;;;;;;;20.10;16.20;;;6.00;99.90;;;;;;5075389;28;20465;-82
2022/04/16 00:40:56;;;;;;;19.13;13.90;;;6.00;99.90;;;;;;5074732;28;21079;-81
2022/04/16 00:43:24;;;;;;;17.63;13.97;;;6.00;99.90;;;;;;5074827;28;20492;-81
2022/04/16 00:45:52;;;;;;;16.47;13.30;;;5.90;99.90;;;;;;5074206;28;20458;-81
2022/04/16 00:48:19;;;;;;;16.93;14.17;;;5.90;99.90;;;;;;5075498;28;20464;-81
2022/04/16 00:50:47;;;;;;;19.93;15.50;;;5.90;99.90;;;;;;5073671;28;20945;-81
2022/04/16 00:53:13;;;;;;;19.17;15.07;;;5.90;99.90;;;;;;5074899;28;20481;-81
2022/04/16 00:55:40;;;;;;;22.00;14.63;;;5.90;99.90;;;;;;5074946;28;20828;-81
2022/04/16 00:58:09;;;;;;;25.20;16.07;;;5.80;99.90;;;;;;5074039;28;20449;-82
2022/04/16 01:00:36;;;;;;;17.17;13.57;;;5.80;99.90;;;;;;5075256;28;20454;-80
2022/04/16 01:03:04;;;;;;;22.83;15.00;;;5.80;99.90;;;;;;5073770;28;20499;-83
2022/04/16 01:05:30;;;;;;;20.50;14.20;;;5.80;99.90;;;;;;5073400;28;20948;-82
2022/04/16 01:07:59;;;;;;;20.47;15.40;;;5.80;99.90;;;;;;5074236;28;20496;-83
2022/04/16 01:10:27;;;;;;;21.07;15.03;;;5.80;99.90;;;;;;5074691;28;20462;-81
2022/04/16 01:12:54;;;;;;;20.97;15.83;;;5.80;99.90;;;;;;5074269;28;20471;-81
2022/04/16 01:15:23;;;;;;;19.93;14.93;;;5.80;99.90;;;;;;5073298;28;20454;-81
2022/04/16 01:17:51;;;;;;;17.53;13.73;;;5.70;99.90;;;;;;5074973;28;20894;-80
2022/04/16 01:20:19;;;;;;;22.67;14.93;;;5.70;99.90;;;;;;5074456;28;20548;-82
2022/04/16 01:22:48;;;;;;;20.80;14.70;;;5.70;99.90;;;;;;5073850;28;20485;-81
2022/04/16 01:25:15;;;;;;;19.30;17.10;;;5.70;99.90;;;;;;5073208;28;20826;-80
2022/04/16 01:27:45;;;;;;;20.80;15.40;;;5.70;99.90;;;;;;5073671;28;20461;-82
2022/04/16 01:30:13;;;;;;;21.17;14.93;;;5.70;99.90;;;;;;5073657;28;20455;-83
2022/04/16 01:32:41;;;;;;;26.23;17.87;;;5.70;99.90;;;;;;5074173;28;20458;-81
2022/04/16 01:35:08;;;;;;;21.90;16.20;;;5.70;99.90;;;;;;5074190;28;20531;-81
2022/04/16 01:37:35;;;;;;;18.37;14.33;;;5.60;99.90;;;;;;5075094;28;20463;-81
2022/04/16 01:40:05;;;;;;;22.07;16.77;;;5.70;99.90;;;;;;5073885;28;20445;-81
2022/04/16 01:42:32;;;;;;;21.60;15.57;;;5.70;99.90;;;;;;5073382;28;20476;-81
2022/04/16 01:45:00;;;;;;;26.00;16.90;;;5.70;99.90;;;;;;5072250;28;20548;-81
2022/04/16 01:47:30;;;;;;;25.90;16.50;;;5.70;99.90;;;;;;5073783;28;20472;-80
2022/04/16 01:49:57;;;;;;;25.47;17.63;;;5.80;99.90;;;;;;5073088;28;20907;-81
2022/04/16 01:52:24;;;;;;;23.90;16.93;;;5.80;99.90;;;;;;5073541;28;20459;-82
2022/04/16 01:54:51;;;;;;;22.00;17.40;;;5.80;99.90;;;;;;5072129;28;20455;-83
2022/04/16 01:57:20;;;;;;;27.13;16.87;;;5.80;99.90;;;;;;5073325;28;20462;-81
2022/04/16 01:59:47;;;;;;;23.17;17.70;;;5.80;99.90;;;;;;5073137;28;20452;-82
2022/04/16 02:02:14;;;;;;;23.43;18.60;;;5.90;99.90;;;;;;5073432;28;20474;-82
2022/04/16 02:04:41;;;;;;;30.63;19.43;;;5.90;99.90;;;;;;5072500;28;20967;-80
2022/04/16 02:07:08;;;;;;;24.27;18.70;;;5.90;99.90;;;;;;5073212;28;20462;-82
2022/04/16 02:09:34;;;;;;;25.03;19.47;;;5.90;99.90;;;;;;5074361;28;20555;-81
2022/04/16 02:12:02;;;;;;;22.60;16.67;;;5.90;99.90;;;;;;5076851;28;20462;-81
2022/04/16 02:14:31;;;;;;;22.43;19.00;;;5.90;99.90;;;;;;5076235;28;21172;-82
2022/04/16 02:16:59;;;;;;;25.00;16.50;;;5.90;99.90;;;;;;5076129;28;20462;-82
2022/04/16 02:19:26;;;;;;;23.23;16.80;;;5.90;99.90;;;;;;5076381;28;20555;-80
2022/04/16 02:21:53;;;;;;;23.07;17.03;;;5.90;99.90;;;;;;5076054;28;20449;-81
2022/04/16 02:24:20;;;;;;;21.10;15.83;;;5.80;99.90;;;;;;5075438;28;20494;-80
2022/04/16 02:26:48;;;;;;;23.77;17.07;;;5.80;99.90;;;;;;5076061;28;20513;-81
2022/04/16 02:29:15;;;;;;;24.40;18.10;;;5.80;99.90;;;;;;5076619;28;20819;-81
2022/04/16 02:31:45;;;;;;;24.87;18.40;;;5.80;99.90;;;;;;5076089;28;20444;-81
2022/04/16 02:34:12;;;;;;;23.30;16.60;;;5.80;99.90;;;;;;5075173;28;20476;-81
2022/04/16 02:36:40;;;;;;;22.03;17.70;;;5.80;99.90;;;;;;5075544;28;20457;-80
2022/04/16 02:39:08;;;;;;;23.33;17.20;;;5.70;99.90;;;;;;5075746;28;20465;-81
2022/04/16 02:41:35;;;;;;;25.50;19.50;;;5.80;99.90;;;;;;5075543;28;21001;-82
2022/04/16 02:44:02;;;;;;;23.90;18.17;;;5.80;99.90;;;;;;5075599;28;20497;-81
2022/04/16 02:49:16;;;;;;;23.70;18.57;;;6.00;99.90;;;;;;5075757;28;20460;-80
2022/04/16 02:51:43;;;;;;;25.93;18.30;;;6.10;99.90;;;;;;5075930;28;20831;-80
2022/04/16 02:54:10;;;;;;;25.20;18.67;;;6.10;99.90;;;;;;5076284;28;20466;-80
2022/04/16 02:56:37;;;;;;;27.73;18.70;;;6.20;99.90;;;;;;5076464;28;20458;-81
2022/04/16 02:59:04;;;;;;;25.37;19.20;;;6.20;99.90;;;;;;5075204;28;20453;-80
2022/04/16 03:01:31;;;;;;;30.07;18.57;;;6.30;99.90;;;;;;5074778;28;20457;-80
2022/04/16 03:03:58;;;;;;;25.13;19.07;;;6.30;99.90;;;;;;5073645;28;20588;-80
2022/04/16 03:06:26;;;;;;;24.27;20.33;;;6.30;99.90;;;;;;5074177;28;21097;-81
2022/04/16 03:08:53;;;;;;;26.53;20.10;;;6.40;99.90;;;;;;5074741;28;20450;-80
2022/04/16 03:11:19;;;;;;;23.10;18.73;;;6.40;99.90;;;;;;5074005;28;20981;-80
2022/04/16 03:13:47;;;;;;;29.23;19.83;;;6.30;99.90;;;;;;5073964;28;20586;-81
2022/04/16 03:18:58;;;;;;;20.57;16.77;;;6.00;99.90;;;;;;5074074;28;20496;-80
2022/04/16 03:21:26;;;;;;;24.40;18.27;;;6.00;99.90;;;;;;5074069;28;20461;-80
2022/04/16 03:23:53;;;;;;;28.60;19.27;;;5.90;99.90;;;;;;5073945;28;20492;-80
2022/04/16 03:26:20;;;;;;;24.73;17.33;;;5.90;99.90;;;;;;5073444;28;20453;-80
2022/04/16 03:28:46;;;;;;;26.50;19.60;;;5.80;99.90;;;;;;5073917;28;20548;-80
2022/04/16 03:31:13;;;;;;;22.63;17.43;;;5.70;99.90;;;;;;5074635;28;20472;-80
2022/04/16 03:33:40;;;;;;;24.17;18.43;;;5.70;99.90;;;;;;5073147;28;20989;-79
2022/04/16 03:36:07;;;;;;;21.70;17.23;;;5.70;99.90;;;;;;5073835;28;20453;-80
2022/04/16 03:38:35;;;;;;;22.77;16.77;;;5.70;99.90;;;;;;5075915;28;20458;-81
2022/04/16 03:41:02;;;;;;;25.20;18.47;;;5.60;99.90;;;;;;5073641;28;20453;-80
2022/04/16 03:43:29;;;;;;;22.07;18.10;;;5.60;99.90;;;;;;5072135;28;20490;-81
2022/04/16 03:45:58;;;;;;;25.00;17.60;;;5.60;99.90;;;;;;5074433;28;20453;-80
2022/04/16 03:48:25;;;;;;;25.13;20.10;;;5.70;99.90;;;;;;5074546;28;20561;-81
2022/04/16 03:50:52;;;;;;;26.53;20.67;;;5.80;99.90;;;;;;5074128;28;20454;-78
2022/04/16 03:53:19;;;;;;;24.90;17.90;;;6.00;99.90;;;;;;5073341;28;20473;-81
2022/04/16 04:01:15;;;;;;;26.50;19.60;;;6.40;99.90;;;;;;5074819;28;20418;-80
2022/04/16 04:03:42;;;;;;;26.13;20.57;;;6.50;99.90;;;;;;5074131;28;20828;-81
2022/04/16 04:06:09;;;;;;;25.50;19.00;;;6.60;99.90;;;;;;5076456;28;20485;-82
2022/04/16 04:08:36;;;;;;;29.07;20.13;;;6.60;99.90;;;;;;5083609;28;20453;-80
2022/04/16 04:11:05;;;;;;;27.57;20.50;;;6.50;99.90;;;;;;5084104;28;20456;-80
2022/04/16 04:13:32;;;;;;;34.63;21.53;;;6.40;99.90;;;;;;5084705;28;20569;-81
2022/04/16 04:15:58;;;;;;;24.23;18.90;;;6.30;99.90;;;;;;5085440;28;20514;-81
2022/04/16 04:18:26;;;;;;;26.53;19.67;;;6.20;99.90;;;;;;5086367;28;20468;-80
2022/04/16 04:20:54;;;;;;;29.53;20.57;;;6.20;99.90;;;;;;5085788;28;20449;-81
2022/04/16 04:23:22;;;;;;;26.40;19.37;;;6.20;99.90;;;;;;5085182;28;20580;-80
2022/04/16 04:25:49;;;;;;;23.83;18.43;;;6.20;99.90;;;;;;5088566;28;20455;-80
2022/04/16 04:28:17;;;;;;;26.07;19.03;;;6.10;99.90;;;;;;5076841;28;20440;-81
2022/04/16 04:30:44;;;;;;;23.63;16.83;;;6.00;99.90;;;;;;5082489;28;20446;-81
2022/04/16 04:33:11;;;;;;;28.13;20.10;;;5.90;99.90;;;;;;5097676;28;20458;-81
2022/04/16 04:35:38;;;;;;;24.33;18.37;;;5.90;99.90;;;;;;5110687;28;20450;-81
2022/04/16 04:38:04;;;;;;;26.93;17.97;;;5.90;99.90;;;;;;5095144;28;20458;-82
2022/04/16 04:40:31;;;;;;;25.23;18.93;;;6.00;99.90;;;;;;5095278;28;20450;-81
2022/04/16 04:42:58;;;;;;;27.60;20.63;;;6.10;99.90;;;;;;5095424;28;20476;-82
2022/04/16 04:45:26;;;;;;;30.27;18.33;;;6.30;99.90;;;;;;5095195;28;20480;-82
2022/04/16 04:47:53;;;;;;;27.17;19.00;;;6.70;99.90;;;;;;5095679;28;20445;-82
2022/04/16 04:50:19;;;;;;;23.60;18.53;;;6.30;99.90;;;;;;5095799;28;20455;-81
2022/04/16 04:52:47;;;;;;;28.73;20.30;;;6.40;99.90;;;;;;5095664;28;20462;-82
2022/04/16 04:55:14;;;;;;;25.87;18.90;;;6.50;99.90;;;;;;5082678;28;20451;-82
2022/04/16 04:57:42;;;;;;;25.63;19.23;;;6.60;99.90;;;;;;5074265;28;20485;-82
2022/04/16 05:00:12;;;;;;;23.57;18.17;;;6.70;99.90;;;;;;5074975;28;20465;-82
2022/04/16 05:02:44;;;;;;;25.73;18.30;;;6.80;99.90;;;;;;5074280;28;20481;-82
2022/04/16 05:05:11;;;;;;;23.60;19.27;;;6.80;99.90;;;;;;5073378;28;20522;-82
2022/04/16 05:07:38;;;;;;;25.33;19.70;;;6.70;99.90;;;;;;5074051;28;20453;-82
2022/04/16 05:10:06;;;;;;;26.63;19.07;;;6.60;99.90;;;;;;5073983;28;20454;-82
2022/04/16 05:12:33;;;;;;;29.37;19.87;;;6.50;99.90;;;;;;5073827;28;20449;-82
2022/04/16 05:15:01;;;;;;;30.20;19.77;;;6.40;99.90;;;;;;5072564;28;20443;-82
2022/04/16 05:17:28;;;;;;;29.73;18.73;;;6.40;99.90;;;;;;5073576;28;20449;-82
2022/04/16 05:19:56;;;;;;;27.20;20.53;;;6.40;99.90;;;;;;5074543;28;20534;-82
2022/04/16 05:22:23;;;;;;;28.93;21.63;;;6.30;99.90;;;;;;5075438;28;20624;-81
2022/04/16 05:24:50;;;;;;;26.90;20.20;;;6.30;99.90;;;;;;5074610;28;20493;-81
2022/04/16 05:27:17;;;;;;;27.83;19.20;;;6.30;99.90;;;;;;5075049;28;20454;-81
2022/04/16 05:29:56;;;;;;;30.33;21.40;;;6.30;99.90;;;;;;5077441;28;20466;-82
2022/04/16 05:32:24;;;;;;;31.00;21.37;;;6.30;99.90;;;;;;5090651;28;20470;-82
2022/04/16 05:34:56;;;;;;;30.20;22.17;;;6.30;99.90;;;;;;5092543;28;20462;-82
2022/04/16 05:37:23;;;;;;;32.40;22.70;;;6.30;99.90;;;;;;5094956;28;20451;-82
2022/04/16 05:39:49;;;;;;;30.97;22.13;;;6.30;99.90;;;;;;5094629;28;20457;-82
2022/04/16 05:42:16;;;;;;;30.00;22.53;;;6.30;99.90;;;;;;5093253;28;20454;-82
2022/04/16 05:44:43;;;;;;;40.23;25.60;;;6.40;99.90;;;;;;5094009;28;20490;-82
2022/04/16 05:47:10;;;;;;;33.73;25.20;;;6.50;99.90;;;;;;5093904;28;20465;-83
2022/04/16 05:49:37;;;;;;;39.43;26.20;;;6.50;99.90;;;;;;5086561;28;20470;-83
2022/04/16 05:52:06;;;;;;;40.83;26.57;;;6.60;99.90;;;;;;5078755;28;20496;-83
2022/04/16 05:54:33;;;;;;;36.97;26.50;;;6.70;99.90;;;;;;5083802;28;20474;-82
2022/04/16 05:57:01;;;;;;;39.60;27.07;;;6.80;99.90;;;;;;5079553;28;20457;-83
2022/04/16 05:59:28;;;;;;;42.40;26.90;;;6.90;99.90;;;;;;5079166;28;20538;-83
2022/04/16 06:01:56;;;;;;;38.93;26.70;;;6.90;99.90;;;;;;5078814;28;20970;-82
2022/04/16 06:04:22;;;;;;;41.13;27.60;;;7.00;99.90;;;;;;5088046;28;20565;-82
2022/04/16 06:06:49;;;;;;;45.70;29.80;;;7.10;99.90;;;;;;5079764;28;20506;-82
2022/04/16 06:09:18;;;;;;;40.83;27.07;;;7.20;99.90;;;;;;5077962;28;20512;-83
2022/04/16 06:11:46;;;;;;;37.97;26.80;;;7.30;99.90;;;;;;5079429;28;20450;-82
2022/04/16 06:14:13;;;;;;;43.53;28.40;;;7.40;99.90;;;;;;5076486;28;20978;-81
2022/04/16 06:16:39;;;;;;;38.03;23.67;;;7.50;99.90;;;;;;5080384;28;20455;-82
2022/04/16 06:19:06;;;;;;;35.47;24.90;;;7.60;99.90;;;;;;5067248;28;20999;-82
2022/04/16 06:21:33;;;;;;;37.63;25.67;;;7.60;99.90;;;;;;5065930;28;20469;-82
2022/04/16 06:24:00;;;;;;;35.40;25.30;;;7.60;99.90;;;;;;5079406;28;20510;-82
2022/04/16 06:26:30;;;;;;;32.60;21.63;;;7.80;99.90;;;;;;5079348;28;20447;-82
2022/04/16 06:28:56;;;;;;;32.13;21.90;;;7.80;99.90;;;;;;5079647;28;20451;-83
2022/04/16 06:31:24;;;;;;;32.60;23.07;;;7.90;99.90;;;;;;5080646;28;20457;-83
2022/04/16 06:33:50;;;;;;;32.03;23.07;;;7.90;99.90;;;;;;5077551;28;20486;-81
2022/04/16 06:36:17;;;;;;;33.40;21.70;;;8.00;99.90;;;;;;5077773;28;20826;-82
2022/04/16 06:38:44;;;;;;;31.83;21.37;;;8.10;99.90;;;;;;5085475;28;20529;-82
2022/04/16 06:41:11;;;;;;;31.80;21.70;;;8.10;99.90;;;;;;5082606;28;20509;-80
2022/04/16 06:43:39;;;;;;;27.23;20.43;;;8.20;99.90;;;;;;5084248;28;20474;-80
2022/04/16 06:46:06;;;;;;;25.33;19.20;;;8.30;99.90;;;;;;5083700;28;20962;-82
2022/04/16 06:48:32;;;;;;;28.50;21.20;;;8.40;99.90;;;;;;5093644;28;20446;-81
2022/04/16 06:51:00;;;;;;;24.80;18.80;;;8.50;99.90;;;;;;5087522;28;20466;-82
2022/04/16 06:53:26;;;;;;;26.47;19.70;;;8.50;99.90;;;;;;5077696;28;20562;-81
2022/04/16 06:55:53;;;;;;;26.40;17.87;;;8.60;99.90;;;;;;5078306;28;20474;-81
2022/04/16 06:58:20;;;;;;;24.83;17.20;;;8.60;99.90;;;;;;5079722;28;20459;-80
2022/04/16 07:00:48;;;;;;;24.33;16.37;;;8.60;99.90;;;;;;5076845;28;20450;-81
2022/04/16 07:05:48;;;;;;;25.80;17.37;;;8.70;99.90;;;;;;5087118;22;20493;-81
2022/04/16 07:08:15;;;;;;;24.23;17.50;;;8.80;99.90;;;;;;5076799;28;20477;-80
2022/04/16 07:10:41;;;;;;;24.40;17.37;;;8.80;99.90;;;;;;5077990;28;20453;-82
2022/04/16 07:13:08;;;;;;;22.77;14.77;;;8.90;99.90;;;;;;5077522;28;20451;-79
2022/04/16 07:15:35;;;;;;;22.60;15.53;;;9.10;99.90;;;;;;5077831;28;20469;-80
2022/04/16 07:18:04;;;;;;;20.73;13.70;;;9.20;99.90;;;;;;5078579;28;20542;-81
2022/04/16 07:20:31;;;;;;;20.03;14.40;;;9.30;99.90;;;;;;5078481;28;20456;-81
2022/04/16 07:22:58;;;;;;;19.87;14.27;;;9.40;99.90;;;;;;5075626;28;20481;-79
2022/04/16 07:25:26;;;;;;;19.10;13.83;;;9.50;99.90;;;;;;5077706;28;20575;-82
2022/04/16 07:27:52;;;;;;;17.97;13.37;;;9.60;99.90;;;;;;5077684;28;20456;-81
2022/04/16 07:30:19;;;;;;;17.50;13.80;;;10.00;99.90;;;;;;5077168;28;20456;-79
2022/04/16 07:32:46;;;;;;;22.83;14.33;;;10.20;99.90;;;;;;5076774;28;20545;-79
2022/04/16 07:35:14;;;;;;;16.87;13.03;;;10.50;99.90;;;;;;5075021;28;20493;-81
2022/04/16 07:37:41;;;;;;;21.70;14.07;;;10.70;99.90;;;;;;5077401;28;20828;-81
2022/04/16 07:40:09;;;;;;;17.20;13.20;;;10.80;99.90;;;;;;5078884;28;20460;-80
2022/04/16 07:42:36;;;;;;;18.90;14.30;;;10.90;99.90;;;;;;5077461;28;20454;-80
2022/04/16 07:45:03;;;;;;;15.90;13.03;;;11.10;99.90;;;;;;5076995;28;20583;-78
2022/04/16 07:47:29;;;;;;;17.43;12.90;;;11.20;99.90;;;;;;5057287;28;20475;-80
2022/04/16 07:49:56;;;;;;;19.90;15.07;;;11.50;99.90;;;;;;5074564;28;20459;-81
2022/04/16 07:52:25;;;;;;;17.97;14.20;;;11.60;99.90;;;;;;5078309;28;20902;-80
2022/04/16 07:54:52;;;;;;;16.07;13.50;;;11.80;99.90;;;;;;5075794;28;20478;-81
2022/04/16 07:57:18;;;;;;;18.10;12.40;;;11.90;99.90;;;;;;5076706;28;20459;-80
2022/04/16 07:59:45;;;;;;;16.80;12.97;;;12.40;99.90;;;;;;5076388;28;20459;-80
2022/04/16 08:02:13;;;;;;;14.13;11.27;;;12.90;99.90;;;;;;5076001;28;20477;-80
2022/04/16 08:04:41;;;;;;;16.63;12.10;;;13.40;99.90;;;;;;5075316;28;20583;-79
2022/04/16 08:07:08;;;;;;;15.80;11.93;;;14.30;99.90;;;;;;5075502;28;20466;-80
2022/04/16 08:09:36;;;;;;;15.80;12.67;;;15.40;99.90;;;;;;5076496;28;20497;-79
2022/04/16 08:12:04;;;;;;;15.67;10.93;;;16.10;99.90;;;;;;5075691;28;20457;-80
2022/04/16 08:14:30;;;;;;;14.03;12.30;;;16.90;99.90;;;;;;5079202;28;20854;-83
2022/04/16 08:16:57;;;;;;;11.23;8.90;;;16.80;99.90;;;;;;5079395;28;20462;-80
2022/04/16 08:19:24;;;;;;;15.93;11.80;;;17.90;99.90;;;;;;5078840;28;20507;-82
2022/04/16 08:21:53;;;;;;;11.60;9.90;;;18.10;99.90;;;;;;5072909;28;21022;-80
2022/04/16 08:24:38;;;;;;;11.10;10.00;;;18.30;99.90;;;;;;5065380;28;20505;-82
2022/04/16 08:27:07;;;;;;;10.70;9.40;;;18.30;99.90;;;;;;5069491;28;20473;-81
2022/04/16 08:29:34;;;;;;;12.60;9.93;;;18.50;99.90;;;;;;5068110;28;20498;-80
2022/04/16 08:32:01;;;;;;;9.70;8.63;;;18.80;99.90;;;;;;5068375;28;20461;-81
2022/04/16 08:34:28;;;;;;;11.57;9.33;;;19.70;99.90;;;;;;5077209;28;20923;-81
2022/04/16 08:36:55;;;;;;;11.93;9.93;;;20.40;97.70;;;;;;5076985;28;20484;-80
2022/04/16 08:39:22;;;;;;;10.70;9.60;;;20.00;91.70;;;;;;5076468;28;20451;-82
2022/04/16 08:41:50;;;;;;;13.83;9.90;;;20.00;90.50;;;;;;5076418;28;20456;-81
2022/04/16 08:44:19;;;;;;;9.67;8.57;;;20.20;86.60;;;;;;5072497;28;20476;-80
2022/04/16 08:46:47;;;;;;;10.20;7.50;;;19.90;88.90;;;;;;5075768;28;20509;-80
2022/04/16 08:49:15;;;;;;;9.67;8.17;;;21.00;89.90;;;;;;5076484;28;20459;-81
2022/04/16 08:51:43;;;;;;;8.00;7.13;;;21.70;76.80;;;;;;5075439;28;20462;-81
2022/04/16 08:54:10;;;;;;;8.60;7.70;;;22.10;76.30;;;;;;5065974;28;20466;-81
2022/04/16 08:56:39;;;;;;;9.13;7.90;;;22.20;72.30;;;;;;5069474;28;20451;-80
2022/04/16 08:59:06;;;;;;;9.20;8.23;;;22.40;69.30;;;;;;5064341;28;20825;-81
2022/04/16 09:01:34;;;;;;;9.43;8.20;;;22.50;67.40;;;;;;5068547;28;20447;-82
2022/04/16 09:04:01;;;;;;;11.10;7.60;;;23.20;71.50;;;;;;5071941;28;20474;-81
2022/04/16 09:06:28;;;;;;;8.27;7.37;;;23.60;63.60;;;;;;5074459;28;20481;-81
2022/04/16 09:08:55;;;;;;;11.50;9.03;;;24.30;66.70;;;;;;5076649;28;20534;-80
2022/04/16 09:11:23;;;;;;;10.53;8.60;;;24.30;62.10;;;;;;5073038;28;20463;-80
2022/04/16 09:13:54;;;;;;;9.00;7.23;;;22.80;62.20;;;;;;5076259;28;20882;-80
2022/04/16 09:16:21;;;;;;;10.63;8.50;;;20.30;66.20;;;;;;5076906;28;20882;-80
2022/04/16 09:18:51;;;;;;;9.50;7.60;;;19.40;68.90;;;;;;5077349;28;20549;-80
2022/04/16 09:21:18;;;;;;;8.93;7.40;;;20.80;77.50;;;;;;5078437;28;20533;-82
2022/04/16 09:23:48;;;;;;;10.00;7.70;;;20.80;70.30;;;;;;5077451;28;20472;-80
2022/04/16 09:26:29;;;;;;;9.43;8.40;;;19.50;71.50;;;;;;5077944;28;20540;-79
2022/04/16 09:28:56;;;;;;;8.93;8.03;;;18.30;73.20;;;;;;5076857;28;20450;-82
2022/04/16 09:31:28;;;;;;;8.63;7.30;;;17.60;74.30;;;;;;5075852;28;20448;-81
2022/04/16 09:33:56;;;;;;;8.23;6.83;;;17.90;79.10;;;;;;5080385;28;20529;-81
2022/04/16 09:36:27;;;;;;;9.83;7.07;;;20.30;77.30;;;;;;5081191;28;20451;-81
2022/04/16 09:39:05;;;;;;;8.03;6.90;;;22.10;67.40;;;;;;5081015;28;20454;-81
2022/04/16 09:41:33;;;;;;;9.77;7.53;;;23.70;69.90;;;;;;5080048;28;20618;-82
2022/04/16 09:44:01;;;;;;;8.33;7.10;;;24.60;65.30;;;;;;5080297;28;20467;-82
2022/04/16 09:46:29;;;;;;;7.37;6.63;;;26.00;62.90;;;;;;5078319;28;20478;-81
2022/04/16 09:49:02;;;;;;;10.40;7.40;;;25.80;59.90;;;;;;5080095;28;20455;-80
2022/04/16 09:51:33;;;;;;;6.23;5.60;;;24.60;55.80;;;;;;5071108;28;20443;-81
2022/04/16 09:54:03;;;;;;;8.17;6.80;;;25.20;58.70;;;;;;5072379;28;21042;-81
2022/04/16 09:56:32;;;;;;;7.07;6.07;;;25.30;58.50;;;;;;5068603;28;20455;-82
2022/04/16 09:59:01;;;;;;;12.90;7.93;;;26.00;56.50;;;;;;5068714;28;20451;-81
2022/04/16 10:01:29;;;;;;;7.50;6.80;;;25.80;54.80;;;;;;5070492;28;20830;-80
2022/04/16 10:03:58;;;;;;;7.93;6.77;;;26.10;57.70;;;;;;5073721;28;20489;-81
2022/04/16 10:06:25;;;;;;;6.57;5.87;;;26.20;53.90;;;;;;5079559;28;21005;-82
2022/04/16 10:08:53;;;;;;;6.60;5.80;;;26.80;55.60;;;;;;5072529;28;20446;-79
2022/04/16 10:11:41;;;;;;;6.20;5.50;;;26.20;53.90;;;;;;5072049;28;20522;-80
2022/04/16 10:14:16;;;;;;;8.40;6.43;;;27.20;54.50;;;;;;5069575;28;20456;-80
2022/04/16 10:16:58;;;;;;;7.90;6.83;;;27.60;52.80;;;;;;5067171;28;20446;-82
2022/04/16 10:19:37;;;;;;;9.83;5.30;;;28.10;50.50;;;;;;5077305;28;20453;-80
2022/04/16 10:22:07;;;;;;;7.23;5.83;;;28.10;50.00;;;;;;5075272;28;21010;-79
2022/04/16 10:24:33;;;;;;;6.13;4.87;;;28.00;49.70;;;;;;5074387;28;20474;-81
2022/04/16 10:27:08;;;;;;;7.00;5.17;;;28.00;48.20;;;;;;5080026;28;20481;-80
2022/04/16 10:29:38;;;;;;;6.93;5.10;;;28.20;49.40;;;;;;5075171;28;20481;-81
2022/04/16 10:32:16;;;;;;;6.37;5.60;;;27.30;48.70;;;;;;5068575;28;20452;-81
2022/04/16 10:34:45;;;;;;;6.10;4.50;;;27.20;50.20;;;;;;5070082;28;20471;-79
2022/04/16 10:37:23;;;;;;;7.70;5.00;;;28.00;47.80;;;;;;5068776;28;20455;-80
2022/04/16 10:39:52;;;;;;;6.13;5.43;;;28.20;47.20;;;;;;5068368;28;20839;-79
2022/04/16 10:42:29;;;;;;;5.07;4.57;;;29.00;48.00;;;;;;5073542;28;20463;-80
2022/04/16 10:45:08;;;;;;;4.93;4.43;;;28.80;44.70;;;;;;5070091;28;20470;-80
2022/04/16 10:47:38;;;;;;;6.63;5.60;;;28.00;45.80;;;;;;5071547;28;20518;-79
2022/04/16 10:50:14;;;;;;;5.00;4.37;;;27.40;50.50;;;;;;5073481;28;20443;-79
2022/04/16 10:52:41;;;;;;;6.67;4.10;;;28.00;47.50;;;;;;5068965;28;20444;-81
2022/04/16 10:55:08;;;;;;;5.37;4.27;;;28.40;47.30;;;;;;5074120;28;20518;-79
2022/04/16 10:57:35;;;;;;;6.43;4.27;;;28.40;45.30;;;;;;5071752;28;20463;-80
2022/04/16 11:00:13;;;;;;;5.90;4.70;;;28.80;47.60;;;;;;5075752;28;20459;-79
2022/04/16 11:02:40;;;;;;;7.03;4.97;;;28.40;46.10;;;;;;5070165;28;20588;-80
2022/04/16 11:05:10;;;;;;;5.10;4.53;;;27.40;44.60;;;;;;5070251;28;20483;-80
2022/04/16 11:07:38;;;;;;;5.60;4.47;;;28.90;45.30;;;;;;5076296;28;20538;-80
2022/04/16 11:10:07;;;;;;;5.13;4.63;;;29.10;46.10;;;;;;5075300;28;20447;-79
2022/04/16 11:12:34;;;;;;;7.70;4.57;;;28.00;43.40;;;;;;5066215;28;20462;-81
2022/04/16 11:15:00;;;;;;;5.70;4.77;;;28.10;44.60;;;;;;5070655;28;20479;-79
2022/04/16 11:17:28;;;;;;;6.43;5.33;;;29.00;44.20;;;;;;5058733;28;20443;-79
2022/04/16 11:20:01;;;;;;;6.50;5.17;;;28.60;45.20;;;;;;5068198;28;20528;-80
2022/04/16 11:22:29;;;;;;;5.30;4.03;;;30.00;45.30;;;;;;5077354;28;20455;-80
2022/04/16 11:24:57;;;;;;;5.80;4.77;;;31.10;44.40;;;;;;5075875;28;20483;-80
2022/04/16 11:35:56;;;;;;;3.70;3.40;;;31.90;38.50;;;;;;5077121;28;20569;-80
2022/04/16 11:38:28;;;;;;;4.80;4.10;;;30.70;40.40;;;;;;5075804;28;20478;-81
2022/04/16 11:40:55;;;;;;;3.83;3.20;;;30.60;38.40;;;;;;5075810;28;20455;-80
2022/04/16 11:43:23;;;;;;;4.03;3.00;;;30.80;38.10;;;;;;5075050;28;20868;-79
2022/04/16 11:45:50;;;;;;;4.40;3.40;;;31.30;38.80;;;;;;5071980;28;20537;-79
2022/04/16 11:48:17;;;;;;;4.43;3.73;;;30.30;38.40;;;;;;5065050;28;20838;-80
2022/04/16 11:50:45;;;;;;;4.80;3.43;;;29.00;37.00;;;;;;5060574;28;20450;-79
2022/04/16 11:53:12;;;;;;;3.77;3.07;;;29.40;38.70;;;;;;5066637;28;20522;-80
2022/04/16 11:55:46;;;;;;;4.97;3.20;;;29.60;39.90;;;;;;5066906;28;20463;-79
2022/04/16 11:58:13;;;;;;;2.97;2.50;;;30.50;39.50;;;;;;5067396;28;20461;-80
2022/04/16 12:00:48;;;;;;;6.33;2.93;;;30.10;40.00;;;;;;5076277;28;21014;-80
2022/04/16 12:03:15;;;;;;;3.93;2.60;;;30.40;41.30;;;;;;5077127;28;20457;-79
2022/04/16 12:05:43;;;;;;;3.47;2.30;;;30.00;39.10;;;;;;5077803;28;20999;-80
2022/04/16 12:08:11;;;;;;;3.97;2.40;;;30.70;40.50;;;;;;5078622;28;20471;-80
2022/04/16 12:10:38;;;;;;;3.83;2.97;;;32.00;39.30;;;;;;5076351;28;20538;-80
2022/04/16 12:13:11;;;;;;;2.97;2.57;;;31.90;37.10;;;;;;5065761;28;20457;-80
2022/04/16 12:15:41;;;;;;;4.83;2.50;;;31.00;38.80;;;;;;5072827;28;21037;-80
2022/04/16 12:18:12;;;;;;;4.80;2.50;;;32.70;38.70;;;;;;5070303;28;20451;-80
2022/04/16 12:20:43;;;;;;;3.13;2.30;;;32.70;37.30;;;;;;5073194;28;20826;-80
2022/04/16 12:23:13;;;;;;;3.90;2.60;;;32.90;37.60;;;;;;5071723;28;20461;-80
2022/04/16 12:25:41;;;;;;;3.50;2.40;;;34.00;34.50;;;;;;5074279;28;20490;-81
2022/04/16 12:28:14;;;;;;;3.73;2.20;;;33.30;35.70;;;;;;5080778;28;20455;-80
2022/04/16 12:30:48;;;;;;;3.07;2.00;;;32.40;37.10;;;;;;5081640;28;20454;-82
2022/04/16 12:33:15;;;;;;;4.37;2.70;;;33.00;37.70;;;;;;5086608;28;20439;-80
2022/04/16 12:35:45;;;;;;;3.73;1.90;;;32.20;36.70;;;;;;5074278;28;20490;-80
2022/04/16 12:38:15;;;;;;;3.10;2.10;;;32.80;36.40;;;;;;5072728;28;20530;-80
2022/04/16 12:40:43;;;;;;;3.20;2.23;;;31.40;35.50;;;;;;5071292;28;20550;-79
2022/04/16 12:43:11;;;;;;;3.73;2.20;;;31.30;37.60;;;;;;5064430;28;20454;-78
2022/04/16 12:45:38;;;;;;;2.93;2.13;;;30.60;34.80;;;;;;5067779;28;21743;-79
2022/04/16 12:48:06;;;;;;;3.77;1.70;;;30.40;36.50;;;;;;5069315;28;20482;-79
2022/04/16 12:50:33;;;;;;;3.47;2.63;;;31.10;36.80;;;;;;5072875;28;20451;-79
2022/04/16 12:53:00;;;;;;;3.40;2.30;;;32.70;36.30;;;;;;5069090;28;20462;-78
2022/04/16 12:55:28;;;;;;;4.33;2.67;;;32.60;35.40;;;;;;5073171;28;20474;-79
2022/04/16 12:57:55;;;;;;;2.90;1.70;;;31.80;35.30;;;;;;5067164;28;21374;-80
2022/04/16 13:00:24;;;;;;;2.37;1.73;;;32.20;36.00;;;;;;5070556;28;20443;-80
2022/04/16 13:02:51;;;;;;;2.63;1.63;;;33.00;35.50;;;;;;5064184;28;20459;-79
2022/04/16 13:05:18;;;;;;;3.60;2.20;;;33.80;34.60;;;;;;5066503;28;21003;-80